RKTU/CHN METAR and TAF weather

Enter ICAO airport designator
Station Type Date Time Source
RKTU METAR 2019/08/23 17:00 UTC NOAA

RKTU 231700Z 34001KT CAVOK 17/16 Q1010


Station Type Date Time Source
RKTU Decoded METAR 2019/08/23 17:00 UTC NOAA

Station name not available
Aug 23, 2019 - 01:00 PM EDT / 2019.08.23 1700 UTC
Wind: from the NNW (340 degrees) at 1 MPH (1 KT):0
Visibility: greater than 7 mile(s):0
Temperature: 62 F (17 C)
Dew Point: 60 F (16 C)
Relative Humidity: 93%
Pressure (altimeter): 29.83 in. Hg (1010 hPa)
ob: RKTU 231700Z 34001KT CAVOK 17/16 Q1010
cycle: 17

Station Type Date Time Source
RKTU TAF 2019/08/23 18:18 UTC NOAA

TAF TAF RKTU 231700Z 2318/2424 30006KT CAVOK TN17/2321Z TX29/2406Z
BECMG 2320/2321 03006KT 4800 BR NSC
BECMG 2400/2401 30006KT 9999 NSW BKN030
BECMG 2402/2403 SCT030

Example: see airport list